Time;durP1;ratioP1;P1;durP2;ratioP2;P2;SDS_P1;SDS_P2;PMS_P1;PMS_P2;Temp;Humidity;BMP_temperature;BMP_pressure;BME280_temperature;BME280_humidity;BME280_pressure;Samples;Min_cycle;Max_cycle;Signal;HPM_P1;HPM_P2
2021/12/05 00:22:50;;;;;;;10.52;1.70;;;18.40;99.90;;;;;;5053227;28;20545;-78
2021/12/05 00:25:26;;;;;;;7.30;1.40;;;18.50;99.90;;;;;;5054439;28;20595;-75
2021/12/05 00:28:12;;;;;;;5.95;1.63;;;18.50;99.90;;;;;;5046848;28;20205;-74
2021/12/05 00:31:07;;;;;;;7.40;1.60;;;18.60;99.90;;;;;;5053366;28;20220;-76
2021/12/05 00:33:56;;;;;;;11.07;1.65;;;18.70;99.90;;;;;;5045102;28;20190;-74
2021/12/05 00:48:03;;;;;;;13.95;2.03;;;19.60;99.90;;;;;;5053212;28;20214;-76
2021/12/05 00:56:31;;;;;;;10.90;1.60;;;19.20;99.90;;;;;;5040595;28;20238;-79
2021/12/05 00:59:29;;;;;;;7.82;1.45;;;19.10;99.90;;;;;;5057117;28;20232;-76
2021/12/05 01:02:35;;;;;;;9.45;1.63;;;18.90;99.90;;;;;;5070635;28;20208;-77
2021/12/05 01:11:09;;;;;;;5.40;1.33;;;18.60;99.90;;;;;;5047056;28;20284;-74
2021/12/05 01:13:44;;;;;;;7.18;1.42;;;18.50;99.90;;;;;;5068725;28;20199;-73
2021/12/05 01:16:19;;;;;;;8.13;1.35;;;18.50;99.90;;;;;;5064939;28;20196;-74
2021/12/05 01:18:50;;;;;;;11.82;1.40;;;18.50;99.90;;;;;;5073009;28;20284;-76
2021/12/05 01:21:24;;;;;;;8.23;1.40;;;18.40;99.90;;;;;;5065261;28;20189;-75
2021/12/05 01:24:01;;;;;;;8.10;1.70;;;18.30;99.90;;;;;;5073015;28;20188;-76
2021/12/05 01:26:38;;;;;;;9.23;1.63;;;18.30;99.90;;;;;;5063230;28;20223;-75
2021/12/05 01:29:27;;;;;;;7.28;1.40;;;18.30;99.90;;;;;;5070760;28;20208;-74
2021/12/05 01:32:08;;;;;;;5.22;1.02;;;18.30;99.90;;;;;;5060577;28;20193;-75
2021/12/05 01:34:53;;;;;;;10.05;1.38;;;18.30;99.90;;;;;;5067097;28;20189;-74
2021/12/05 01:37:36;;;;;;;7.72;1.40;;;18.30;99.90;;;;;;5071162;28;20250;-76
2021/12/05 01:43:32;;;;;;;9.23;1.40;;;18.40;99.90;;;;;;5072542;28;20196;-74
2021/12/05 02:12:08;;;;;;;8.27;1.27;;;19.00;99.90;;;;;;5059946;28;20243;-75
2021/12/05 02:31:44;;;;;;;10.95;1.42;;;18.80;99.90;;;;;;5068658;28;20211;-74
2021/12/05 02:34:28;;;;;;;7.65;1.50;;;18.80;99.90;;;;;;5063241;28;20181;-77
2021/12/05 02:37:15;;;;;;;5.97;1.50;;;18.80;99.90;;;;;;5071411;28;20185;-77
2021/12/05 02:39:53;;;;;;;10.55;1.52;;;18.80;99.90;;;;;;5070391;28;20238;-76
2021/12/05 02:42:32;;;;;;;12.13;1.40;;;18.90;99.90;;;;;;5066443;28;20289;-76
2021/12/05 02:45:03;;;;;;;7.78;1.35;;;18.90;99.90;;;;;;5065808;28;20247;-76
2021/12/05 02:47:34;;;;;;;8.85;1.23;;;18.80;99.90;;;;;;5060473;28;20201;-77
2021/12/05 02:50:18;;;;;;;8.20;1.48;;;18.80;99.90;;;;;;5070381;28;20182;-77
2021/12/05 02:52:53;;;;;;;10.80;1.38;;;18.70;99.90;;;;;;5068020;28;20275;-75
2021/12/05 02:55:29;;;;;;;9.18;1.40;;;18.60;99.90;;;;;;5067365;28;20195;-75
2021/12/05 02:58:04;;;;;;;7.75;1.30;;;18.60;99.90;;;;;;5059130;28;20714;-74
2021/12/05 03:00:41;;;;;;;8.52;1.52;;;18.60;99.90;;;;;;5074734;28;20307;-75
2021/12/05 03:03:18;;;;;;;10.07;1.55;;;18.60;99.90;;;;;;5069628;28;20239;-75
2021/12/05 03:05:51;;;;;;;9.05;1.48;;;18.60;99.90;;;;;;5073323;28;20532;-75
2021/12/05 03:08:24;;;;;;;13.65;1.70;;;18.70;99.90;;;;;;5066586;28;20224;-75
2021/12/05 03:10:56;;;;;;;7.40;1.40;;;18.70;99.90;;;;;;5063221;28;20791;-75
2021/12/05 03:13:30;;;;;;;5.22;1.30;;;18.80;99.90;;;;;;5073426;28;20189;-75
2021/12/05 03:16:01;;;;;;;8.30;1.25;;;18.80;99.90;;;;;;5073643;28;20538;-75
2021/12/05 03:18:31;;;;;;;11.90;1.73;;;18.80;99.90;;;;;;5070734;28;20192;-75
2021/12/05 03:21:04;;;;;;;9.73;1.30;;;18.80;99.90;;;;;;5070856;28;20216;-75
2021/12/05 03:23:37;;;;;;;10.35;1.67;;;18.80;99.90;;;;;;5075223;28;20631;-78
2021/12/05 03:26:10;;;;;;;7.03;1.30;;;18.80;99.90;;;;;;5075368;28;20215;-76
2021/12/05 03:28:41;;;;;;;6.80;1.30;;;18.80;99.90;;;;;;5075372;28;20549;-74
2021/12/05 03:31:12;;;;;;;6.40;3.65;;;18.80;99.90;;;;;;5067220;28;20246;-74
2021/12/05 03:33:43;;;;;;;8.95;1.48;;;18.90;99.90;;;;;;5074917;28;20365;-74
2021/12/05 03:36:14;;;;;;;9.02;1.33;;;18.80;99.90;;;;;;5066855;28;20200;-75
2021/12/05 03:38:47;;;;;;;10.70;1.40;;;18.90;99.90;;;;;;5075025;28;20196;-73
2021/12/05 03:41:19;;;;;;;7.57;1.30;;;18.80;99.90;;;;;;5072720;28;20652;-74
2021/12/05 03:43:52;;;;;;;9.10;1.30;;;18.80;99.90;;;;;;5069104;28;20225;-74
2021/12/05 03:46:23;;;;;;;6.63;1.33;;;18.90;99.90;;;;;;5070394;28;20205;-73
2021/12/05 03:48:57;;;;;;;9.18;1.40;;;18.80;99.90;;;;;;5074242;28;20227;-73
2021/12/05 03:51:29;;;;;;;10.65;1.67;;;18.90;99.90;;;;;;5074095;28;20701;-74
2021/12/05 03:54:02;;;;;;;9.90;1.45;;;18.90;99.90;;;;;;5063897;28;20609;-79
2021/12/05 03:56:33;;;;;;;9.02;1.40;;;18.90;99.90;;;;;;5074652;28;20185;-77
2021/12/05 03:59:05;;;;;;;10.70;1.60;;;18.90;99.90;;;;;;5073759;28;20232;-74
2021/12/05 04:01:42;;;;;;;5.80;1.25;;;18.90;99.90;;;;;;5066572;28;20193;-76
2021/12/05 04:04:19;;;;;;;6.75;1.13;;;18.90;99.90;;;;;;5066528;28;20192;-78
2021/12/05 04:06:50;;;;;;;5.82;1.23;;;18.90;99.90;;;;;;5074528;28;20196;-74
2021/12/05 04:09:23;;;;;;;6.97;1.27;;;18.90;99.90;;;;;;5065372;28;20251;-75
2021/12/05 04:12:02;;;;;;;7.25;1.25;;;18.90;99.90;;;;;;5074395;28;20197;-76
2021/12/05 04:14:36;;;;;;;8.60;1.33;;;18.80;99.90;;;;;;5066716;28;20185;-75
2021/12/05 04:17:08;;;;;;;7.63;1.00;;;18.90;99.90;;;;;;5073269;28;20192;-77
2021/12/05 04:19:43;;;;;;;7.32;1.30;;;18.90;99.90;;;;;;5067422;28;20196;-74
2021/12/05 04:22:13;;;;;;;4.88;1.10;;;18.90;99.90;;;;;;5072821;28;20245;-76
2021/12/05 04:25:01;;;;;;;9.30;1.30;;;18.90;99.90;;;;;;5074059;28;20254;-74
2021/12/05 04:27:37;;;;;;;6.70;1.25;;;18.80;99.90;;;;;;5066026;28;20205;-77
2021/12/05 04:30:10;;;;;;;7.47;1.25;;;18.80;99.90;;;;;;5065457;28;20226;-77
2021/12/05 04:32:41;;;;;;;7.68;1.50;;;18.80;99.90;;;;;;5074047;28;20189;-74
2021/12/05 04:35:12;;;;;;;7.63;1.40;;;18.90;99.90;;;;;;5072386;28;20189;-76
2021/12/05 04:37:43;;;;;;;9.20;1.27;;;18.90;99.90;;;;;;5067738;28;20235;-76
2021/12/05 04:40:17;;;;;;;5.43;1.30;;;18.80;99.90;;;;;;5072286;28;20196;-75
2021/12/05 04:42:47;;;;;;;5.82;1.10;;;18.80;99.90;;;;;;5067794;28;20633;-75
2021/12/05 04:45:21;;;;;;;6.03;1.17;;;18.80;99.90;;;;;;5072722;28;20312;-75
2021/12/05 04:47:52;;;;;;;5.10;1.15;;;18.80;99.90;;;;;;5073618;28;20208;-74
2021/12/05 04:50:24;;;;;;;8.27;1.35;;;18.80;99.90;;;;;;5065094;28;20211;-75
2021/12/05 04:52:56;;;;;;;8.45;1.20;;;18.90;99.90;;;;;;5072960;28;20679;-74
2021/12/05 04:55:29;;;;;;;5.82;1.10;;;19.00;99.90;;;;;;5071800;28;20276;-74
2021/12/05 04:58:01;;;;;;;5.65;1.00;;;19.00;99.90;;;;;;5063259;28;20186;-77
2021/12/05 05:00:34;;;;;;;4.43;1.10;;;19.00;99.90;;;;;;5072356;28;20236;-77
2021/12/05 05:03:05;;;;;;;5.38;1.20;;;19.00;99.90;;;;;;5063478;28;20192;-77
2021/12/05 05:05:40;;;;;;;8.65;0.93;;;19.10;99.90;;;;;;5069900;28;20190;-75
2021/12/05 05:08:13;;;;;;;7.25;1.13;;;19.10;99.90;;;;;;5069385;28;20219;-77
2021/12/05 05:10:45;;;;;;;4.38;1.10;;;19.00;99.90;;;;;;5070992;28;20649;-75
2021/12/05 05:13:16;;;;;;;7.57;1.10;;;19.00;99.90;;;;;;5072417;28;20181;-77
2021/12/05 05:15:49;;;;;;;6.38;1.10;;;19.00;99.90;;;;;;5069057;28;20181;-74
2021/12/05 05:18:26;;;;;;;7.13;1.20;;;19.00;99.90;;;;;;5071993;28;20185;-76
2021/12/05 05:21:01;;;;;;;6.70;1.17;;;19.00;99.90;;;;;;5072916;28;20189;-75
2021/12/05 05:23:42;;;;;;;5.88;1.10;;;19.00;99.90;;;;;;5072422;28;20188;-74
2021/12/05 05:29:24;;;;;;;8.15;1.85;;;19.00;99.90;;;;;;5060610;28;20694;-78
2021/12/05 05:43:21;;;;;;;7.15;1.40;;;18.80;99.90;;;;;;5060782;28;20221;-74
2021/12/05 05:48:56;;;;;;;7.20;1.25;;;18.80;99.90;;;;;;5055772;28;20213;-79
2021/12/05 05:51:27;;;;;;;8.20;1.30;;;18.80;99.90;;;;;;5071825;28;20284;-77
2021/12/05 05:53:58;;;;;;;6.95;1.08;;;18.80;99.90;;;;;;5072476;28;20185;-76
2021/12/05 05:56:30;;;;;;;7.30;1.40;;;18.80;99.90;;;;;;5068841;28;20189;-74
2021/12/05 05:59:11;;;;;;;6.22;1.15;;;18.80;99.90;;;;;;5072229;28;20282;-77
2021/12/05 06:03:18;;;;;;;9.68;1.30;;;18.80;99.90;;;;;;5071955;28;20230;-77
2021/12/05 06:04:46;;;;;;;9.90;1.17;;;18.80;99.90;;;;;;5071785;28;20189;-78
2021/12/05 06:07:18;;;;;;;6.32;1.23;;;18.90;99.90;;;;;;5072615;28;20181;-77
2021/12/05 06:09:48;;;;;;;10.00;1.40;;;18.90;99.90;;;;;;5072486;28;20223;-78
2021/12/05 06:12:19;;;;;;;7.75;1.33;;;18.90;99.90;;;;;;5064562;28;20185;-78
2021/12/05 06:14:52;;;;;;;6.95;1.23;;;18.90;99.90;;;;;;5063250;28;22320;-76
2021/12/05 06:17:22;;;;;;;6.78;1.20;;;18.90;99.90;;;;;;5064842;28;20198;-77
2021/12/05 06:19:54;;;;;;;10.38;1.48;;;18.90;99.90;;;;;;5069104;28;20193;-81
2021/12/05 06:22:25;;;;;;;6.70;1.33;;;18.90;99.90;;;;;;5060344;28;20201;-78
2021/12/05 06:24:55;;;;;;;5.30;1.20;;;18.90;99.90;;;;;;5072148;28;20815;-77
2021/12/05 06:27:31;;;;;;;5.65;1.20;;;18.80;99.90;;;;;;5063732;28;20215;-78
2021/12/05 06:30:10;;;;;;;8.10;1.48;;;18.80;99.90;;;;;;5063986;28;20212;-78
2021/12/05 06:38:35;;;;;;;6.32;0.90;;;18.70;99.90;;;;;;5069904;28;20231;-77
2021/12/05 06:41:12;;;;;;;8.90;1.48;;;18.70;99.90;;;;;;5068361;28;20193;-77
2021/12/05 06:46:34;;;;;;;16.25;4.55;;;18.60;99.90;;;;;;5072286;28;20219;-76
2021/12/05 06:49:04;;;;;;;24.77;7.65;;;18.90;99.90;;;;;;5075402;28;20212;-75
2021/12/05 06:51:35;;;;;;;54.08;15.65;;;19.00;99.90;;;;;;5071554;28;20200;-76
2021/12/05 06:54:06;;;;;;;32.03;10.25;;;19.10;99.90;;;;;;5067783;28;20180;-74
2021/12/05 06:56:37;;;;;;;7.15;1.33;;;19.20;99.90;;;;;;5075404;28;20189;-76
2021/12/05 06:59:11;;;;;;;6.10;1.67;;;19.20;99.90;;;;;;5067265;28;20240;-78
2021/12/05 07:01:43;;;;;;;5.93;1.15;;;19.20;99.90;;;;;;5075231;28;20288;-76
2021/12/05 07:04:37;;;;;;;7.05;1.20;;;19.20;99.90;;;;;;5068432;28;20216;-76
2021/12/05 07:07:15;;;;;;;10.75;1.48;;;19.20;99.90;;;;;;5074916;28;20212;-76
2021/12/05 07:09:47;;;;;;;9.18;1.52;;;19.10;99.90;;;;;;5075091;28;20299;-78
2021/12/05 07:15:05;;;;;;;7.97;1.38;;;18.90;99.90;;;;;;5050423;28;20208;-77
2021/12/05 07:20:22;;;;;;;5.68;1.10;;;18.80;99.90;;;;;;5072742;28;20284;-76
2021/12/05 07:23:11;;;;;;;12.45;1.95;;;18.80;99.90;;;;;;5074947;28;20276;-75
2021/12/05 07:25:47;;;;;;;7.97;1.33;;;18.70;99.90;;;;;;5075469;28;20189;-75
2021/12/05 07:42:19;;;;;;;8.77;1.40;;;18.50;99.90;;;;;;5074484;28;20204;-77
2021/12/05 07:44:50;;;;;;;8.93;1.52;;;18.50;99.90;;;;;;5063564;28;20715;-76
2021/12/05 07:47:23;;;;;;;9.68;1.17;;;18.50;99.90;;;;;;5067044;28;20201;-76
2021/12/05 07:50:03;;;;;;;5.90;1.15;;;18.40;99.90;;;;;;5072771;28;20212;-77
2021/12/05 07:52:34;;;;;;;7.80;1.60;;;18.40;99.90;;;;;;5074699;28;20193;-78
2021/12/05 07:55:12;;;;;;;5.25;1.05;;;18.40;99.90;;;;;;5073522;28;20193;-75
2021/12/05 07:57:59;;;;;;;11.10;1.30;;;18.40;99.90;;;;;;5062997;28;20194;-77
2021/12/05 08:00:42;;;;;;;7.95;1.40;;;18.40;99.90;;;;;;5070237;28;20228;-74
2021/12/05 08:14:33;;;;;;;4.93;1.48;;;18.40;99.90;;;;;;5073029;28;20239;-75
2021/12/05 08:17:06;;;;;;;4.97;1.00;;;18.40;99.90;;;;;;5073161;28;20700;-75
2021/12/05 08:19:36;;;;;;;6.20;1.10;;;18.40;99.90;;;;;;5070489;28;20197;-74
2021/12/05 08:22:15;;;;;;;8.02;1.67;;;18.30;99.90;;;;;;5072546;28;20227;-75
2021/12/05 08:24:47;;;;;;;9.95;1.38;;;18.30;99.90;;;;;;5071264;28;20193;-75
2021/12/05 08:27:18;;;;;;;5.50;1.10;;;18.30;99.90;;;;;;5071722;28;20194;-75
2021/12/05 08:29:53;;;;;;;8.82;1.50;;;18.40;99.90;;;;;;5072207;28;20215;-76
2021/12/05 08:32:33;;;;;;;4.70;1.20;;;18.30;99.90;;;;;;5070727;28;20180;-75
2021/12/05 08:35:18;;;;;;;4.20;1.27;;;18.30;99.90;;;;;;5072859;28;20200;-75
2021/12/05 08:41:11;;;;;;;10.45;1.55;;;18.30;99.90;;;;;;5060037;28;20197;-75
2021/12/05 08:44:01;;;;;;;8.23;1.27;;;18.30;99.90;;;;;;5063157;28;20597;-76
2021/12/05 09:38:33;;;;;;;6.30;1.23;;;18.10;99.90;;;;;;5064742;28;20718;-74
2021/12/05 10:08:44;;;;;;;6.82;1.20;;;18.00;99.90;;;;;;4983008;28;20191;-75
2021/12/05 10:11:27;;;;;;;7.63;1.15;;;18.00;99.90;;;;;;5063498;28;20229;-77
2021/12/05 10:14:18;;;;;;;6.28;1.40;;;18.00;99.90;;;;;;5071856;28;20187;-78
2021/12/05 10:17:24;;;;;;;8.27;2.70;;;18.00;99.90;;;;;;5063993;28;20243;-75
2021/12/05 10:20:31;;;;;;;10.25;1.73;;;18.00;99.90;;;;;;5066726;28;20656;-76
2021/12/05 10:34:33;;;;;;;6.65;1.30;;;18.00;99.90;;;;;;5071693;28;20196;-75
2021/12/05 10:37:15;;;;;;;10.15;1.38;;;18.00;99.90;;;;;;5070208;28;20268;-76
2021/12/05 10:39:46;;;;;;;9.13;1.67;;;18.00;99.90;;;;;;5070640;28;20220;-78
2021/12/05 10:42:38;;;;;;;10.27;1.67;;;18.00;99.90;;;;;;5071053;28;20193;-76
2021/12/05 10:45:11;;;;;;;7.97;1.48;;;18.00;99.90;;;;;;5069071;28;20193;-77
2021/12/05 10:47:45;;;;;;;7.93;1.33;;;18.00;99.90;;;;;;5065366;28;20190;-76
2021/12/05 10:50:36;;;;;;;8.23;1.50;;;18.00;99.90;;;;;;5071302;28;22095;-76
2021/12/05 10:53:36;;;;;;;8.93;1.40;;;18.00;99.90;;;;;;5071303;28;20273;-78
2021/12/05 10:56:11;;;;;;;6.68;1.23;;;18.00;99.90;;;;;;5071604;28;20528;-77
2021/12/05 10:58:45;;;;;;;4.75;1.00;;;18.10;99.90;;;;;;5064007;28;20191;-76
2021/12/05 11:01:20;;;;;;;6.43;1.30;;;18.00;99.90;;;;;;5068773;28;20204;-76
2021/12/05 11:03:56;;;;;;;9.68;1.30;;;18.00;99.90;;;;;;5059309;28;20234;-78
2021/12/05 11:06:32;;;;;;;5.65;1.17;;;18.00;99.90;;;;;;5070584;28;20196;-77
2021/12/05 11:09:14;;;;;;;7.95;1.35;;;18.00;99.90;;;;;;5071909;28;20222;-75
2021/12/05 11:11:47;;;;;;;5.72;1.20;;;18.00;99.90;;;;;;5060633;28;20197;-74
2021/12/05 11:14:22;;;;;;;9.48;1.38;;;17.90;99.90;;;;;;5069789;28;20192;-75
2021/12/05 11:16:57;;;;;;;8.20;1.30;;;17.90;99.90;;;;;;5070317;28;20230;-75
2021/12/05 11:19:34;;;;;;;6.78;1.17;;;17.90;99.90;;;;;;5072547;28;20188;-76
2021/12/05 11:22:15;;;;;;;9.10;1.30;;;17.90;99.90;;;;;;5069522;28;20364;-74
2021/12/05 11:24:51;;;;;;;6.50;1.10;;;17.90;99.90;;;;;;5071058;28;20216;-74
2021/12/05 11:27:28;;;;;;;11.23;1.38;;;17.80;99.90;;;;;;5065622;28;20189;-76
2021/12/05 11:30:15;;;;;;;4.32;1.30;;;17.80;99.90;;;;;;5075242;28;20605;-75
2021/12/05 11:33:02;;;;;;;6.28;1.30;;;17.80;99.90;;;;;;5069455;28;20189;-75
2021/12/05 11:35:38;;;;;;;9.52;1.25;;;17.70;99.90;;;;;;5074559;28;20313;-76
2021/12/05 11:38:14;;;;;;;8.65;1.60;;;17.70;99.90;;;;;;5071406;28;20637;-74
2021/12/05 11:40:54;;;;;;;7.63;1.42;;;17.60;99.90;;;;;;5067489;28;20280;-74
2021/12/05 11:43:28;;;;;;;6.88;1.40;;;17.50;99.90;;;;;;5066621;28;20223;-75
2021/12/05 11:46:03;;;;;;;9.98;1.52;;;17.50;99.90;;;;;;5070082;28;20184;-74
2021/12/05 11:48:36;;;;;;;6.43;1.45;;;17.40;99.90;;;;;;5064113;28;20692;-75
2021/12/05 11:51:24;;;;;;;7.65;1.67;;;17.30;99.90;;;;;;5067290;28;20616;-75
2021/12/05 11:53:58;;;;;;;7.25;2.25;;;17.30;99.90;;;;;;5067164;28;20231;-77
2021/12/05 11:56:50;;;;;;;6.70;1.75;;;17.20;99.90;;;;;;5064680;28;20189;-76
2021/12/05 11:59:23;;;;;;;8.02;1.70;;;17.20;99.90;;;;;;5069154;28;20753;-75
2021/12/05 12:01:59;;;;;;;5.15;1.52;;;17.10;99.90;;;;;;5061719;28;20645;-74
2021/12/05 12:04:42;;;;;;;8.27;1.42;;;17.10;99.90;;;;;;5073369;28;20233;-75
2021/12/05 12:07:26;;;;;;;7.53;1.52;;;17.10;99.90;;;;;;5073384;28;20188;-75
2021/12/05 12:10:02;;;;;;;7.20;1.60;;;17.10;99.90;;;;;;5072716;28;20593;-75
2021/12/05 12:12:44;;;;;;;10.93;1.33;;;17.10;99.90;;;;;;5067252;28;20317;-74
2021/12/05 12:15:18;;;;;;;7.55;1.25;;;17.20;99.90;;;;;;5070072;28;20197;-74
2021/12/05 12:17:50;;;;;;;9.48;1.50;;;17.30;99.90;;;;;;5066147;28;20674;-74
2021/12/05 12:20:23;;;;;;;9.77;1.50;;;17.40;99.90;;;;;;5073417;28;20193;-75
2021/12/05 12:22:56;;;;;;;6.53;1.17;;;17.40;99.90;;;;;;5062869;28;20197;-75
2021/12/05 12:25:31;;;;;;;11.52;1.30;;;17.40;99.90;;;;;;5071000;28;20235;-74
2021/12/05 12:28:04;;;;;;;10.20;1.55;;;17.50;99.90;;;;;;5067728;28;20189;-75
2021/12/05 12:30:37;;;;;;;8.88;1.25;;;17.50;99.90;;;;;;5073132;28;20212;-75
2021/12/05 12:33:13;;;;;;;7.07;1.40;;;17.40;99.90;;;;;;5068489;28;20193;-75
2021/12/05 12:35:48;;;;;;;7.38;1.25;;;17.40;99.90;;;;;;5071652;28;20185;-75
2021/12/05 12:38:22;;;;;;;9.40;1.58;;;17.50;99.90;;;;;;5069034;28;20201;-75
2021/12/05 12:40:55;;;;;;;9.70;1.48;;;17.50;99.90;;;;;;5067482;28;20193;-75
2021/12/05 12:43:49;;;;;;;10.43;1.42;;;17.50;99.90;;;;;;5073057;28;20225;-75
2021/12/05 12:46:26;;;;;;;6.28;1.20;;;17.50;99.90;;;;;;5067881;28;20193;-75
2021/12/05 12:49:00;;;;;;;7.55;1.33;;;17.50;99.90;;;;;;5073041;28;20185;-75
2021/12/05 12:51:35;;;;;;;9.95;1.33;;;17.40;99.90;;;;;;5073559;28;20250;-75
2021/12/05 12:54:10;;;;;;;6.70;1.77;;;17.50;99.90;;;;;;5066598;28;20261;-75
2021/12/05 12:56:41;;;;;;;6.32;1.10;;;17.50;99.90;;;;;;5065051;28;20193;-75
2021/12/05 12:59:17;;;;;;;5.90;1.30;;;17.50;99.90;;;;;;5072990;28;20295;-75
2021/12/05 13:05:03;;;;;;;4.80;0.90;;;17.40;99.90;;;;;;5058201;28;20197;-74
2021/12/05 13:10:29;;;;;;;10.45;1.50;;;17.40;99.90;;;;;;5061984;28;20272;-75
2021/12/05 13:13:04;;;;;;;6.03;1.10;;;17.40;99.90;;;;;;5073006;28;20252;-75
2021/12/05 13:15:40;;;;;;;6.93;1.20;;;17.30;99.90;;;;;;5073286;28;20192;-74
2021/12/05 13:18:23;;;;;;;9.88;1.35;;;17.30;99.90;;;;;;5065687;28;20190;-77
2021/12/05 13:21:00;;;;;;;6.72;1.40;;;17.40;99.90;;;;;;5071803;28;20283;-76
2021/12/05 13:23:36;;;;;;;9.07;1.40;;;17.40;99.90;;;;;;5066527;28;20242;-78
2021/12/05 13:26:28;;;;;;;9.98;1.73;;;17.40;99.90;;;;;;5064387;28;20216;-76
2021/12/05 13:29:01;;;;;;;8.23;1.50;;;17.40;99.90;;;;;;5071084;28;20229;-75
2021/12/05 13:31:49;;;;;;;6.35;1.15;;;17.40;99.90;;;;;;5067916;28;20220;-74
2021/12/05 13:34:26;;;;;;;6.28;1.20;;;17.40;99.90;;;;;;5071506;28;20191;-74
2021/12/05 13:37:00;;;;;;;9.55;1.30;;;17.40;99.90;;;;;;5072700;28;20554;-75
2021/12/05 13:39:42;;;;;;;11.13;1.92;;;17.40;99.90;;;;;;5072739;28;20197;-74
2021/12/05 13:42:16;;;;;;;10.30;1.60;;;17.50;99.90;;;;;;5056073;28;20254;-75
2021/12/05 13:45:14;;;;;;;5.63;1.30;;;17.40;99.90;;;;;;5070629;28;20657;-74
2021/12/05 13:48:07;;;;;;;10.95;1.40;;;17.50;99.90;;;;;;5072711;28;20254;-74
2021/12/05 13:50:44;;;;;;;7.75;1.20;;;17.50;99.90;;;;;;5072465;28;20212;-74
2021/12/05 13:53:32;;;;;;;6.15;1.38;;;17.50;99.90;;;;;;5067183;28;20729;-75
2021/12/05 13:56:13;;;;;;;6.82;1.60;;;17.50;99.90;;;;;;5072180;28;20181;-74
2021/12/05 13:58:47;;;;;;;8.02;1.35;;;17.50;99.90;;;;;;5066825;28;20212;-75
2021/12/05 14:01:25;;;;;;;7.18;1.15;;;17.50;99.90;;;;;;5064961;28;20648;-74
2021/12/05 14:04:28;;;;;;;5.85;1.23;;;17.60;99.90;;;;;;5067491;28;20188;-74
2021/12/05 14:07:01;;;;;;;8.73;1.27;;;17.50;99.90;;;;;;5056250;28;20219;-74
2021/12/05 14:09:35;;;;;;;7.20;1.27;;;17.60;99.90;;;;;;5065367;28;20185;-74
2021/12/05 14:12:14;;;;;;;9.88;1.25;;;17.60;99.90;;;;;;5070692;28;20220;-75
2021/12/05 14:14:49;;;;;;;7.03;1.17;;;17.60;99.90;;;;;;5064693;28;20180;-74
2021/12/05 14:17:21;;;;;;;11.98;1.70;;;17.60;99.90;;;;;;5070734;28;20193;-74
2021/12/05 14:19:57;;;;;;;8.93;1.45;;;17.60;99.90;;;;;;5065209;28;20192;-75
2021/12/05 14:22:30;;;;;;;7.13;1.17;;;17.60;99.90;;;;;;5069282;28;20702;-76
2021/12/05 14:25:03;;;;;;;8.68;1.27;;;17.50;99.90;;;;;;5067055;28;20634;-75
2021/12/05 14:27:36;;;;;;;8.05;2.03;;;17.50;99.90;;;;;;5067392;28;20201;-75
2021/12/05 14:30:09;;;;;;;5.53;1.00;;;17.50;99.90;;;;;;5071783;28;20247;-75
2021/12/05 14:32:41;;;;;;;10.70;1.17;;;17.50;99.90;;;;;;5071778;28;20579;-75
2021/12/05 14:35:16;;;;;;;5.88;1.10;;;17.50;99.90;;;;;;5060749;28;20197;-74
2021/12/05 14:37:48;;;;;;;11.90;1.45;;;17.50;99.90;;;;;;5066688;28;20204;-74
2021/12/05 14:40:22;;;;;;;8.82;1.10;;;17.50;99.90;;;;;;5066464;28;20247;-75
2021/12/05 14:42:54;;;;;;;9.13;1.35;;;17.50;99.90;;;;;;5065006;28;20685;-74
2021/12/05 14:45:26;;;;;;;9.35;1.60;;;17.50;99.90;;;;;;5070009;28;20956;-74
2021/12/05 14:48:02;;;;;;;8.70;1.70;;;17.50;99.90;;;;;;5064067;28;20196;-75
2021/12/05 14:50:36;;;;;;;9.40;1.70;;;17.50;99.90;;;;;;5064304;28;20185;-74
2021/12/05 14:53:09;;;;;;;7.95;1.70;;;17.50;99.90;;;;;;5072154;28;20593;-74
2021/12/05 14:55:40;;;;;;;6.95;1.10;;;17.50;99.90;;;;;;5068841;28;20208;-74
2021/12/05 14:58:16;;;;;;;10.70;1.52;;;17.50;99.90;;;;;;5075443;28;20189;-76
2021/12/05 15:00:51;;;;;;;5.90;1.30;;;17.50;99.90;;;;;;5075844;28;20262;-76
2021/12/05 15:03:25;;;;;;;7.85;1.20;;;17.50;99.90;;;;;;5067669;28;20239;-76
2021/12/05 15:06:00;;;;;;;7.38;1.20;;;17.50;99.90;;;;;;5075196;28;20558;-76
2021/12/05 15:08:31;;;;;;;8.18;1.25;;;17.50;99.90;;;;;;5072655;28;20246;-77
2021/12/05 15:11:04;;;;;;;11.10;1.35;;;17.50;99.90;;;;;;5064393;28;20214;-75
2021/12/05 15:13:35;;;;;;;10.07;1.20;;;17.40;99.90;;;;;;5074275;28;20262;-76
2021/12/05 15:16:06;;;;;;;9.35;1.50;;;17.40;99.90;;;;;;5074868;28;20192;-77
2021/12/05 15:18:39;;;;;;;6.60;1.10;;;17.40;99.90;;;;;;5072273;28;20181;-77
2021/12/05 15:21:11;;;;;;;4.38;0.90;;;17.40;99.90;;;;;;5063913;28;20235;-76
2021/12/05 15:23:43;;;;;;;7.57;1.35;;;17.50;99.90;;;;;;5067887;28;20248;-77
2021/12/05 15:26:14;;;;;;;9.93;1.20;;;17.40;99.90;;;;;;5074720;28;20186;-74
2021/12/05 15:28:47;;;;;;;10.25;1.40;;;17.50;99.90;;;;;;5067905;28;20231;-77
2021/12/05 15:31:18;;;;;;;7.68;1.38;;;17.40;99.90;;;;;;5070564;28;20240;-77
2021/12/05 15:33:51;;;;;;;8.90;1.25;;;17.40;99.90;;;;;;5066857;28;20193;-77
2021/12/05 15:36:31;;;;;;;9.73;1.27;;;17.40;99.90;;;;;;5074553;28;20196;-77
2021/12/05 15:39:19;;;;;;;6.25;1.20;;;17.40;99.90;;;;;;5075209;28;20189;-77
2021/12/05 15:41:50;;;;;;;8.45;1.25;;;17.30;99.90;;;;;;5064715;28;20193;-76
2021/12/05 15:44:32;;;;;;;9.27;1.10;;;17.40;99.90;;;;;;5073720;28;20224;-76
2021/12/05 15:47:07;;;;;;;8.10;1.33;;;17.30;99.90;;;;;;5069513;28;20239;-77
2021/12/05 15:49:53;;;;;;;10.40;1.60;;;17.30;99.90;;;;;;5074234;28;20196;-75
2021/12/05 15:52:38;;;;;;;7.93;1.33;;;17.30;99.90;;;;;;5074132;28;20220;-75
2021/12/05 15:55:12;;;;;;;6.70;1.10;;;17.30;99.90;;;;;;5069041;28;20189;-76
2021/12/05 15:57:47;;;;;;;6.65;1.00;;;17.30;99.90;;;;;;5073568;28;20827;-76
2021/12/05 16:00:22;;;;;;;7.70;1.30;;;17.30;99.90;;;;;;5067281;28;20282;-74
2021/12/05 16:03:01;;;;;;;9.68;1.30;;;17.30;99.90;;;;;;5074099;28;20189;-76
2021/12/05 16:05:32;;;;;;;8.18;1.25;;;17.30;99.90;;;;;;5069276;28;20235;-77
2021/12/05 16:08:10;;;;;;;5.20;1.00;;;17.30;99.90;;;;;;5070139;28;20255;-78
2021/12/05 16:10:42;;;;;;;6.18;0.95;;;17.30;99.90;;;;;;5072006;28;20197;-75
2021/12/05 16:13:18;;;;;;;8.50;1.50;;;17.30;99.90;;;;;;5069042;28;20296;-75
2021/12/05 16:15:53;;;;;;;10.75;1.35;;;17.30;99.90;;;;;;5066064;28;20197;-76
2021/12/05 16:18:35;;;;;;;7.97;1.20;;;17.30;99.90;;;;;;5067579;28;20204;-77
2021/12/05 16:21:07;;;;;;;7.40;1.25;;;17.30;99.90;;;;;;5066957;28;20634;-77
2021/12/05 16:23:40;;;;;;;5.32;1.00;;;17.30;99.90;;;;;;5074166;28;20197;-77
2021/12/05 16:26:13;;;;;;;10.75;1.30;;;17.30;99.90;;;;;;5067419;28;20189;-77
2021/12/05 16:28:45;;;;;;;14.10;1.27;;;17.40;99.90;;;;;;5070410;28;20192;-77
2021/12/05 16:31:19;;;;;;;7.82;1.10;;;17.40;99.90;;;;;;5073521;28;20217;-76
2021/12/05 16:33:52;;;;;;;9.02;1.08;;;17.40;99.90;;;;;;5073595;28;20219;-75
2021/12/05 16:36:23;;;;;;;7.75;1.30;;;17.50;99.90;;;;;;5073923;28;20189;-76
2021/12/05 16:38:56;;;;;;;6.43;1.10;;;17.50;99.90;;;;;;5073231;28;20189;-76
2021/12/05 16:41:29;;;;;;;4.95;1.00;;;17.50;99.90;;;;;;5073360;28;20185;-76
2021/12/05 16:44:09;;;;;;;8.35;1.00;;;17.50;99.90;;;;;;5055398;28;20653;-77
2021/12/05 16:46:41;;;;;;;7.90;1.10;;;17.50;99.90;;;;;;5072990;28;20641;-75
2021/12/05 16:49:13;;;;;;;6.93;1.50;;;17.60;99.90;;;;;;5073348;28;20196;-77
2021/12/05 16:51:52;;;;;;;10.57;1.20;;;17.60;99.90;;;;;;5073306;28;20219;-77
2021/12/05 16:54:27;;;;;;;11.40;1.35;;;17.60;99.90;;;;;;5072189;28;20668;-77
2021/12/05 16:57:01;;;;;;;11.98;1.83;;;17.60;99.90;;;;;;5062450;28;20186;-77
2021/12/05 16:59:36;;;;;;;8.90;1.20;;;17.60;99.90;;;;;;5072430;28;20224;-76
2021/12/05 17:02:27;;;;;;;7.10;1.10;;;17.60;99.90;;;;;;5072876;28;20196;-77
2021/12/05 17:05:00;;;;;;;5.88;1.10;;;17.60;99.90;;;;;;5060539;28;20203;-77
2021/12/05 17:07:42;;;;;;;4.40;0.95;;;17.60;99.90;;;;;;5064519;28;20274;-76
2021/12/05 17:10:34;;;;;;;6.93;1.25;;;17.60;99.90;;;;;;5064361;28;20267;-77
2021/12/05 17:13:15;;;;;;;6.90;1.40;;;17.60;99.90;;;;;;5064624;28;20745;-77
2021/12/05 17:15:52;;;;;;;6.90;1.02;;;17.60;99.90;;;;;;5067165;28;20192;-77
2021/12/05 17:18:25;;;;;;;5.45;1.00;;;17.60;99.90;;;;;;5071797;28;20200;-77
2021/12/05 17:20:58;;;;;;;6.35;1.00;;;17.60;99.90;;;;;;5065054;28;20227;-76
2021/12/05 17:23:32;;;;;;;4.57;1.00;;;17.60;99.90;;;;;;5070320;28;20203;-77
2021/12/05 17:26:19;;;;;;;8.23;0.90;;;17.60;99.90;;;;;;5061530;28;20197;-77
2021/12/05 17:29:04;;;;;;;;;;;;;;;;;;;;;
2021/12/05 17:31:38;;;;;;;6.55;1.20;;;17.60;99.90;;;;;;5069146;28;20220;-75
2021/12/05 17:34:11;;;;;;;6.13;1.00;;;17.60;99.90;;;;;;5061671;28;20196;-76
2021/12/05 17:36:43;;;;;;;4.35;0.93;;;17.50;99.90;;;;;;5070104;28;20186;-75
2021/12/05 17:39:19;;;;;;;7.35;1.02;;;17.50;99.90;;;;;;5071456;28;20543;-76
2021/12/05 17:41:55;;;;;;;7.82;1.10;;;17.50;99.90;;;;;;5068994;28;20276;-77